createdAt,value
2022-08-16T00:01:40.981Z,46.17
2022-08-16T00:05:02.577Z,46.37
2022-08-16T00:08:36.529Z,46.07
2022-08-16T00:11:59.587Z,45.84
2022-08-16T00:15:50.920Z,45.75
2022-08-16T00:19:13.667Z,45.87
2022-08-16T00:22:35.601Z,45.89
2022-08-16T00:26:34.857Z,45.54
2022-08-16T00:29:37.589Z,45.62
2022-08-16T00:33:00.607Z,45.66
2022-08-16T00:36:21.582Z,45.82
2022-08-16T00:39:44.693Z,45.76
2022-08-16T00:43:05.613Z,45.67
2022-08-16T00:46:53.999Z,45.64
2022-08-16T00:50:20.584Z,45.55
2022-08-16T00:53:41.620Z,45.65
2022-08-16T00:57:05.615Z,45.66
2022-08-16T01:00:26.642Z,45.82
2022-08-16T01:03:49.319Z,45.55
2022-08-16T01:07:17.715Z,45.69
2022-08-16T01:10:40.604Z,45.78
2022-08-16T01:14:09.203Z,45.73
2022-08-16T01:17:36.917Z,45.64
2022-08-16T01:21:06.612Z,45.74
2022-08-16T01:24:53.871Z,45.74
2022-08-16T01:28:21.610Z,45.54
2022-08-16T01:31:51.671Z,45.76
2022-08-16T01:35:17.067Z,45.81
2022-08-16T01:38:41.618Z,45.91
2022-08-16T01:42:12.903Z,45.98
2022-08-16T01:45:40.821Z,45.93
2022-08-16T01:49:06.613Z,45.79
2022-08-16T01:52:30.697Z,45.97
2022-08-16T01:55:58.616Z,46.00
2022-08-16T01:59:25.626Z,45.93
2022-08-16T02:02:46.739Z,46.05
2022-08-16T02:06:14.637Z,45.92
2022-08-16T02:09:58.725Z,45.97
2022-08-16T02:13:21.627Z,46.18
2022-08-16T02:16:51.652Z,46.10
2022-08-16T02:20:13.635Z,46.01
2022-08-16T02:23:29.734Z,45.98
2022-08-16T02:26:50.668Z,46.13
2022-08-16T02:30:35.856Z,46.10
2022-08-16T02:33:54.629Z,46.20
2022-08-16T02:37:22.655Z,46.16
2022-08-16T02:40:43.619Z,45.99
2022-08-16T02:44:04.651Z,46.22
2022-08-16T02:47:27.626Z,46.27
2022-08-16T02:50:53.706Z,46.23
2022-08-16T02:54:25.623Z,46.17
2022-08-16T02:57:54.013Z,46.59
2022-08-16T03:01:24.890Z,46.45
2022-08-16T03:05:08.640Z,46.44
2022-08-16T03:08:52.295Z,46.24
2022-08-16T03:12:16.695Z,46.46
2022-08-16T03:15:38.699Z,46.47
2022-08-16T03:18:59.657Z,46.36
2022-08-16T03:22:27.966Z,46.31
2022-08-16T03:25:53.658Z,46.26
2022-08-16T03:29:14.678Z,45.99
2022-08-16T03:32:35.647Z,45.87
2022-08-16T03:35:57.664Z,45.87
2022-08-16T03:39:22.754Z,45.86
2022-08-16T03:43:19.163Z,45.80
2022-08-16T03:46:48.162Z,45.64
2022-08-16T03:50:26.117Z,45.51
2022-08-16T03:53:57.769Z,45.25
2022-08-16T03:57:22.701Z,45.41
2022-08-16T04:00:44.766Z,45.22
2022-08-16T04:04:06.904Z,45.09
2022-08-16T04:07:33.566Z,45.10
2022-08-16T04:10:54.854Z,44.83
2022-08-16T04:14:30.871Z,44.97
2022-08-16T04:17:51.671Z,44.79
2022-08-16T04:21:12.697Z,44.87
2022-08-16T04:24:54.870Z,44.72
2022-08-16T04:28:53.192Z,44.74
2022-08-16T04:32:05.663Z,44.43
2022-08-16T04:35:34.114Z,44.34
2022-08-16T04:38:55.675Z,44.53
2022-08-16T04:42:26.246Z,44.18
2022-08-16T04:46:00.537Z,44.05
2022-08-16T04:49:20.691Z,44.08
2022-08-16T04:52:42.652Z,43.70
2022-08-16T04:56:04.689Z,43.83
2022-08-16T04:59:29.476Z,43.83
2022-08-16T05:02:50.992Z,43.58
2022-08-16T05:06:16.697Z,43.56
2022-08-16T05:09:31.688Z,43.53
2022-08-16T05:12:57.724Z,43.25
2022-08-16T05:16:21.388Z,43.20
2022-08-16T05:19:57.638Z,42.91
2022-08-16T05:23:25.696Z,42.84
2022-08-16T05:26:52.762Z,42.86
2022-08-16T05:30:34.015Z,42.88
2022-08-16T05:34:03.773Z,42.50
2022-08-16T05:37:25.694Z,42.78
2022-08-16T05:40:59.684Z,42.51
2022-08-16T05:44:28.706Z,42.39
2022-08-16T05:47:59.578Z,42.26
2022-08-16T05:51:38.332Z,42.30
2022-08-16T05:55:03.740Z,42.35
2022-08-16T05:58:33.085Z,42.03
2022-08-16T06:01:58.837Z,41.95
2022-08-16T06:05:23.723Z,41.80
2022-08-16T06:08:46.327Z,41.54
2022-08-16T06:12:07.715Z,41.54
2022-08-16T06:15:33.707Z,41.31
2022-08-16T06:18:55.716Z,40.97
2022-08-16T06:22:19.452Z,40.76
2022-08-16T06:25:57.735Z,40.76
2022-08-16T06:29:22.724Z,40.20
2022-08-16T06:32:48.549Z,40.05
2022-08-16T06:36:09.719Z,39.67
2022-08-16T06:39:50.041Z,39.50
2022-08-16T06:43:27.760Z,39.21
2022-08-16T06:46:41.735Z,39.30
2022-08-16T06:50:10.747Z,39.33
2022-08-16T06:53:52.900Z,38.82
2022-08-16T06:57:16.848Z,38.77
2022-08-16T07:00:38.716Z,38.32
2022-08-16T07:04:04.730Z,38.38
2022-08-16T07:07:34.528Z,38.13
2022-08-16T07:10:56.778Z,37.78
2022-08-16T07:14:26.480Z,38.07
2022-08-16T07:17:48.724Z,37.71
2022-08-16T07:21:09.737Z,37.49
2022-08-16T07:24:32.731Z,37.33
2022-08-16T07:28:06.718Z,37.17
2022-08-16T07:31:38.142Z,37.32
2022-08-16T07:34:58.741Z,37.22
2022-08-16T07:38:20.206Z,37.05
2022-08-16T07:41:48.714Z,36.82
2022-08-16T07:45:10.744Z,36.56
2022-08-16T07:48:36.732Z,36.67
2022-08-16T07:51:57.766Z,36.38
2022-08-16T07:55:21.750Z,36.14
2022-08-16T07:58:43.473Z,36.17
2022-08-16T08:02:04.840Z,35.92
2022-08-16T08:05:35.804Z,35.98
2022-08-16T08:08:59.413Z,35.71
2022-08-16T08:12:32.721Z,36.17
2022-08-16T08:15:57.781Z,36.10
2022-08-16T08:19:18.733Z,35.70
2022-08-16T08:22:34.757Z,35.83
2022-08-16T08:25:53.736Z,35.75
2022-08-16T08:29:11.874Z,35.50
2022-08-16T08:32:58.152Z,35.19
2022-08-16T08:36:34.786Z,35.03
2022-08-16T08:40:11.797Z,34.92
2022-08-16T08:43:41.305Z,34.91
2022-08-16T08:47:10.957Z,34.69
2022-08-16T08:50:32.784Z,34.36
2022-08-16T08:53:58.047Z,34.09
2022-08-16T08:57:19.755Z,34.26
2022-08-16T09:01:03.791Z,34.10
2022-08-16T09:04:25.860Z,33.99
2022-08-16T09:07:54.634Z,34.08
2022-08-16T09:11:38.902Z,33.72
2022-08-16T09:15:01.773Z,33.70
2022-08-16T09:18:25.183Z,33.41
2022-08-16T09:21:47.861Z,33.08
2022-08-16T09:25:18.800Z,33.34
2022-08-16T09:29:14.401Z,33.01
2022-08-16T09:32:30.864Z,32.89
2022-08-16T09:35:53.094Z,32.83
2022-08-16T09:39:16.383Z,32.80
2022-08-16T09:42:56.424Z,32.63
2022-08-16T09:46:48.940Z,32.71
2022-08-16T09:50:01.783Z,32.57
2022-08-16T09:53:33.802Z,32.13
2022-08-16T09:56:54.793Z,32.00
2022-08-16T10:00:42.416Z,31.81
2022-08-16T10:04:02.641Z,31.42
2022-08-16T10:07:24.801Z,31.30
2022-08-16T10:10:47.771Z,31.08
2022-08-16T10:14:08.795Z,31.01
2022-08-16T10:17:36.782Z,30.66
2022-08-16T10:20:58.782Z,30.50
2022-08-16T10:24:28.472Z,30.73
2022-08-16T10:27:56.694Z,30.51
2022-08-16T10:31:43.509Z,30.75
2022-08-16T10:35:04.788Z,30.59
2022-08-16T10:38:27.854Z,30.74
2022-08-16T10:41:48.797Z,30.62
2022-08-16T10:45:09.856Z,30.41
2022-08-16T10:48:31.137Z,30.18
2022-08-16T10:52:03.239Z,30.10
2022-08-16T10:55:44.602Z,29.91
2022-08-16T11:02:59.225Z,29.63
2022-08-16T11:06:21.846Z,29.52
2022-08-16T11:09:48.848Z,29.64
2022-08-16T11:17:10.798Z,29.65
2022-08-16T11:20:41.391Z,29.08
2022-08-16T11:24:03.823Z,29.10
2022-08-16T11:27:44.816Z,29.06
2022-08-16T11:31:05.823Z,29.04
2022-08-16T11:34:50.313Z,28.62
2022-08-16T11:38:46.479Z,28.64
2022-08-16T11:41:54.819Z,28.61
2022-08-16T11:45:15.827Z,28.24
2022-08-16T11:48:42.802Z,27.87
2022-08-16T11:52:03.819Z,27.85
2022-08-16T11:55:25.828Z,27.93
2022-08-16T11:58:51.729Z,27.72
2022-08-16T12:02:31.939Z,28.12
2022-08-16T12:05:56.833Z,27.92
2022-08-16T12:09:18.852Z,27.62
2022-08-16T12:12:40.821Z,27.58
2022-08-16T12:16:02.843Z,27.37
2022-08-16T12:19:35.549Z,27.16
2022-08-16T12:22:57.891Z,26.35
2022-08-16T12:26:18.857Z,26.23
2022-08-16T12:29:39.907Z,26.03
2022-08-16T12:33:00.831Z,25.93
2022-08-16T12:36:23.844Z,25.83
2022-08-16T12:39:50.584Z,25.60
2022-08-16T12:43:14.844Z,25.51
2022-08-16T12:46:35.829Z,24.82
2022-08-16T12:49:56.857Z,22.79
2022-08-16T12:53:50.841Z,21.10
2022-08-16T12:57:14.149Z,20.60
2022-08-16T13:00:36.883Z,19.89
2022-08-16T13:04:12.337Z,19.28
2022-08-16T13:07:45.128Z,18.94
2022-08-16T13:11:07.611Z,18.90
2022-08-16T13:14:32.300Z,18.37
2022-08-16T13:17:53.838Z,18.06
2022-08-16T13:21:23.776Z,17.42
2022-08-16T13:24:44.851Z,16.87
2022-08-16T13:28:07.902Z,16.47
2022-08-16T13:31:35.838Z,16.01
2022-08-16T13:34:57.872Z,16.02
2022-08-16T13:38:21.604Z,15.39
2022-08-16T13:41:53.890Z,15.18
2022-08-16T13:45:15.660Z,14.88
2022-08-16T13:48:44.286Z,14.67
2022-08-16T13:52:05.844Z,14.92
2022-08-16T13:55:26.885Z,15.12
2022-08-16T13:58:55.124Z,15.03
2022-08-16T14:02:15.990Z,14.46
2022-08-16T14:05:36.859Z,14.81
2022-08-16T14:08:59.061Z,15.23
2022-08-16T14:12:26.919Z,16.20
2022-08-16T14:15:41.974Z,17.01
2022-08-16T14:19:02.866Z,16.86
2022-08-16T14:22:31.502Z,16.77
2022-08-16T14:25:58.872Z,16.47
2022-08-16T14:29:19.964Z,15.82
2022-08-16T14:32:46.946Z,15.63
2022-08-16T14:36:11.875Z,15.59
2022-08-16T14:39:46.921Z,15.10
2022-08-16T14:43:11.864Z,15.02
2022-08-16T14:46:36.884Z,15.15
2022-08-16T14:49:59.886Z,15.50
2022-08-16T14:53:22.865Z,15.70
2022-08-16T14:56:46.923Z,15.39
2022-08-16T15:00:18.093Z,14.74
2022-08-16T15:03:38.880Z,14.57
2022-08-16T15:07:06.871Z,14.46
2022-08-16T15:10:33.850Z,14.52
2022-08-16T15:13:57.881Z,14.22
2022-08-16T15:17:18.867Z,14.30
2022-08-16T15:20:42.885Z,14.68
2022-08-16T15:24:03.849Z,14.69
2022-08-16T15:27:26.872Z,14.43
2022-08-16T15:31:00.857Z,14.68
2022-08-16T15:34:26.023Z,15.10
2022-08-16T15:37:46.892Z,15.72
2022-08-16T15:41:14.934Z,16.30
2022-08-16T15:44:52.130Z,17.03
2022-08-16T15:48:14.874Z,18.38
2022-08-16T15:51:37.888Z,19.87
2022-08-16T15:55:00.872Z,20.85
2022-08-16T15:58:35.599Z,21.69
2022-08-16T16:01:59.887Z,22.38
2022-08-16T16:05:25.894Z,22.96
2022-08-16T16:08:47.899Z,23.88
2022-08-16T16:12:43.672Z,25.12
2022-08-16T16:15:58.278Z,26.10
2022-08-16T16:19:18.911Z,26.96
2022-08-16T16:22:41.879Z,27.15
2022-08-16T16:26:05.727Z,28.19
2022-08-16T16:29:26.863Z,28.27
2022-08-16T16:32:47.946Z,28.74
2022-08-16T16:36:11.914Z,28.93
2022-08-16T16:39:34.937Z,29.27
2022-08-16T16:42:55.903Z,29.95
2022-08-16T16:46:40.543Z,30.44
2022-08-16T16:49:59.909Z,30.85
2022-08-16T16:53:23.188Z,31.29
2022-08-16T16:56:49.539Z,31.33
2022-08-16T17:00:30.225Z,31.70
2022-08-16T17:04:01.913Z,32.26
2022-08-16T17:07:33.902Z,32.68
2022-08-16T17:10:54.909Z,32.42
2022-08-16T17:14:27.584Z,33.24
2022-08-16T17:17:59.843Z,33.62
2022-08-16T17:21:21.922Z,33.77
2022-08-16T17:24:45.098Z,33.88
2022-08-16T17:28:58.297Z,34.09
2022-08-16T17:31:47.073Z,34.34
2022-08-16T17:35:10.822Z,34.72
2022-08-16T17:38:43.771Z,34.87
2022-08-16T17:42:05.937Z,35.01
2022-08-16T17:45:26.946Z,35.04
2022-08-16T17:48:47.926Z,34.91
2022-08-16T17:52:08.973Z,35.33
2022-08-16T17:55:35.967Z,35.45
2022-08-16T17:58:56.910Z,35.84
2022-08-16T18:02:43.884Z,36.01
2022-08-16T18:05:59.981Z,36.11
2022-08-16T18:09:21.927Z,36.36
2022-08-16T18:12:54.978Z,36.42
2022-08-16T18:16:16.938Z,36.60
2022-08-16T18:19:37.912Z,36.83
2022-08-16T18:26:33.912Z,37.24
2022-08-16T18:29:55.974Z,37.48
2022-08-16T18:33:16.954Z,37.56
2022-08-16T18:36:39.931Z,37.32
2022-08-16T18:40:00.960Z,37.85
2022-08-16T18:44:23.966Z,37.85
2022-08-16T18:47:06.953Z,38.23
2022-08-16T18:50:28.933Z,38.39
2022-08-16T18:54:09.944Z,38.50
2022-08-16T18:57:30.930Z,38.30
2022-08-16T19:00:56.697Z,38.85
2022-08-16T19:04:47.426Z,38.79
2022-08-16T19:07:51.973Z,38.61
2022-08-16T19:11:12.948Z,39.12
2022-08-16T19:14:36.953Z,39.08
2022-08-16T19:17:58.938Z,39.33
2022-08-16T19:21:21.963Z,39.40
2022-08-16T19:24:43.119Z,39.30
2022-08-16T19:28:04.964Z,39.32
2022-08-16T19:31:34.944Z,39.39
2022-08-16T19:34:56.017Z,39.64
2022-08-16T19:38:17.987Z,39.59
2022-08-16T19:41:38.961Z,39.64
2022-08-16T19:45:00.981Z,39.83
2022-08-16T19:48:21.949Z,39.65
2022-08-16T19:51:42.955Z,40.09
2022-08-16T19:55:05.954Z,39.97
2022-08-16T19:58:26.971Z,40.14
2022-08-16T20:01:47.955Z,40.28
2022-08-16T20:05:14.973Z,40.33
2022-08-16T20:08:35.975Z,40.61
2022-08-16T20:11:59.002Z,40.43
2022-08-16T20:15:16.362Z,40.49
2022-08-16T20:18:29.994Z,40.61
2022-08-16T20:21:50.984Z,40.63
2022-08-16T20:25:07.978Z,40.96
2022-08-16T20:28:41.928Z,41.20
2022-08-16T20:32:10.978Z,41.17
2022-08-16T20:35:33.969Z,41.70
2022-08-16T20:38:55.000Z,41.76
2022-08-16T20:42:15.967Z,41.84
2022-08-16T20:45:36.990Z,41.49
2022-08-16T20:48:57.982Z,42.06
2022-08-16T20:52:24.009Z,41.98
2022-08-16T20:55:50.965Z,42.17
2022-08-16T20:59:12.039Z,42.54
2022-08-16T21:02:40.007Z,42.70
2022-08-16T21:06:01.991Z,42.89
2022-08-16T21:09:22.982Z,43.03
2022-08-16T21:12:44.002Z,43.21
2022-08-16T21:16:04.991Z,43.34
2022-08-16T21:19:25.997Z,43.55
2022-08-16T21:22:47.007Z,43.92
2022-08-16T21:26:11.281Z,44.06
2022-08-16T21:29:39.644Z,43.99
2022-08-16T21:33:03.993Z,44.29
2022-08-16T21:36:35.833Z,44.36
2022-08-16T21:39:58.074Z,44.49
2022-08-16T21:43:30.031Z,44.73
2022-08-16T21:46:51.010Z,44.64
2022-08-16T21:50:12.008Z,44.94
2022-08-16T21:53:35.001Z,45.20
2022-08-16T21:56:56.000Z,45.50
2022-08-16T22:00:24.004Z,45.83
2022-08-16T22:03:45.003Z,45.72
2022-08-16T22:07:06.003Z,45.87
2022-08-16T22:11:04.749Z,46.14
2022-08-16T22:14:09.008Z,46.20
2022-08-16T22:17:30.018Z,46.36
2022-08-16T22:20:51.024Z,46.62
2022-08-16T22:24:12.016Z,46.59
2022-08-16T22:27:33.036Z,46.53
2022-08-16T22:30:55.020Z,46.68
2022-08-16T22:34:16.032Z,46.99
2022-08-16T22:37:37.026Z,46.96
2022-08-16T22:41:00.037Z,47.24
2022-08-16T22:44:21.013Z,47.46
2022-08-16T22:47:42.023Z,47.31
2022-08-16T22:51:03.013Z,47.40
2022-08-16T22:54:45.871Z,47.54
2022-08-16T22:57:58.040Z,47.63
2022-08-16T23:01:21.083Z,47.82
2022-08-16T23:04:42.022Z,47.59
2022-08-16T23:08:03.069Z,47.84
2022-08-16T23:11:29.007Z,47.86
2022-08-16T23:14:50.037Z,48.13
2022-08-16T23:18:15.034Z,47.96
2022-08-16T23:21:37.234Z,48.22
2022-08-16T23:24:58.025Z,48.36
2022-08-16T23:28:20.024Z,48.27
2022-08-16T23:31:41.019Z,48.36
2022-08-16T23:35:02.040Z,48.45
2022-08-16T23:38:37.993Z,48.56
2022-08-16T23:41:59.034Z,48.45
2022-08-16T23:45:21.038Z,48.57
2022-08-16T23:50:01.700Z,48.74
2022-08-16T23:52:40.601Z,48.64
2022-08-16T23:56:13.047Z,48.91
2022-08-16T23:59:38.055Z,48.70
